Time;durP1;ratioP1;P1;durP2;ratioP2;P2;SDS_P1;SDS_P2;PMS_P1;PMS_P2;Temp;Humidity;BMP_temperature;BMP_pressure;BME280_temperature;BME280_humidity;BME280_pressure;Samples;Min_cycle;Max_cycle;Signal;HPM_P1;HPM_P2
2023/04/24 00:00:12;;;;;;;0.38;0.38;;;;;;;;;;5022884;28;58328;-65
2023/04/24 00:02:40;;;;;;;0.25;0.25;;;;;;;;;;5023324;28;58529;-63
2023/04/24 00:05:05;;;;;;;;;;;;;;;;;;5023979;28;58446;-65
2023/04/24 00:07:30;;;;;;;0.22;0.22;;;;;;;;;;5021912;28;59051;-64
2023/04/24 00:09:56;;;;;;;0.30;0.30;;;;;;;;;;5023963;28;59265;-63
2023/04/24 00:12:21;;;;;;;0.20;0.20;;;;;;;;;;5022146;28;58496;-64
2023/04/24 00:14:46;;;;;;;0.30;0.23;;;;;;;;;;5021930;28;59013;-64
2023/04/24 00:17:11;;;;;;;0.30;0.30;;;;;;;;;;5024601;28;58964;-65
2023/04/24 00:19:36;;;;;;;0.30;0.30;;;;;;;;;;5021003;28;58884;-65
2023/04/24 00:22:02;;;;;;;0.20;0.13;;;;;;;;;;5021675;28;58341;-64
2023/04/24 00:24:27;;;;;;;0.20;0.20;;;;;;;;;;5023729;28;58881;-64
2023/04/24 00:26:52;;;;;;;0.20;0.20;;;;;;;;;;5022320;28;59072;-64
2023/04/24 00:29:18;;;;;;;0.27;0.27;;;;;;;;;;5021150;28;58832;-64
2023/04/24 00:31:43;;;;;;;0.10;0.10;;;;;;;;;;5020585;28;58510;-65
2023/04/24 00:34:08;;;;;;;0.30;0.30;;;;;;;;;;5022769;28;58578;-65
2023/04/24 00:36:33;;;;;;;0.30;0.30;;;;;;;;;;5024720;28;59027;-62
2023/04/24 00:38:58;;;;;;;0.30;0.20;;;;;;;;;;5023697;28;58797;-65
2023/04/24 00:41:26;;;;;;;0.20;0.10;;;;;;;;;;5022512;28;58470;-65
2023/04/24 00:43:52;;;;;;;0.20;0.20;;;;;;;;;;5022482;28;58787;-64
2023/04/24 00:46:17;;;;;;;0.13;0.13;;;;;;;;;;5021583;28;59367;-64
2023/04/24 00:48:43;;;;;;;0.17;0.17;;;;;;;;;;5021683;28;58467;-65
2023/04/24 00:51:08;;;;;;;0.05;0.00;;;;;;;;;;5022480;28;58461;-64
2023/04/24 00:53:33;;;;;;;0.10;0.10;;;;;;;;;;5021845;28;58459;-65
2023/04/24 00:55:59;;;;;;;0.10;0.10;;;;;;;;;;5022585;28;58752;-64
2023/04/24 00:58:24;;;;;;;0.10;0.10;;;;;;;;;;5022132;28;59085;-64
2023/04/24 01:00:52;;;;;;;0.20;0.20;;;;;;;;;;5022634;28;58154;-65
2023/04/24 01:03:18;;;;;;;0.20;0.20;;;;;;;;;;5022021;28;58910;-65
2023/04/24 01:05:43;;;;;;;0.40;0.10;;;;;;;;;;5023666;28;58069;-64
2023/04/24 01:08:08;;;;;;;0.17;0.10;;;;;;;;;;5021324;28;58801;-64
2023/04/24 01:10:34;;;;;;;0.30;0.30;;;;;;;;;;5022830;28;59686;-63
2023/04/24 01:12:59;;;;;;;0.10;0.10;;;;;;;;;;5021580;28;58679;-64
2023/04/24 01:15:25;;;;;;;0.10;0.10;;;;;;;;;;5026762;28;58740;-65
2023/04/24 01:17:50;;;;;;;1.65;0.20;;;;;;;;;;5025801;28;58474;-65
2023/04/24 01:20:15;;;;;;;0.15;0.15;;;;;;;;;;5025089;28;59480;-64
2023/04/24 01:22:41;;;;;;;0.10;0.10;;;;;;;;;;5023284;28;58394;-64
2023/04/24 01:25:06;;;;;;;0.10;0.10;;;;;;;;;;5025297;28;58807;-64
2023/04/24 01:27:31;;;;;;;0.30;0.30;;;;;;;;;;5024530;28;58261;-63
2023/04/24 01:29:56;;;;;;;0.10;0.10;;;;;;;;;;5023250;28;58044;-65
2023/04/24 01:32:22;;;;;;;0.20;0.20;;;;;;;;;;5024510;28;58856;-64
2023/04/24 01:34:48;;;;;;;0.17;0.17;;;;;;;;;;5024275;28;59211;-64
2023/04/24 01:37:13;;;;;;;0.10;0.10;;;;;;;;;;5022003;28;58805;-64
2023/04/24 01:39:38;;;;;;;0.10;0.10;;;;;;;;;;5024032;28;58371;-65
2023/04/24 01:42:04;;;;;;;0.13;0.13;;;;;;;;;;5023776;28;58900;-64
2023/04/24 01:44:30;;;;;;;0.22;0.22;;;;;;;;;;5024813;28;59083;-65
2023/04/24 01:46:55;;;;;;;0.10;0.10;;;;;;;;;;5025007;28;59554;-65
2023/04/24 01:49:20;;;;;;;0.20;0.10;;;;;;;;;;5026641;28;58571;-64
2023/04/24 01:51:46;;;;;;;0.10;0.10;;;;;;;;;;5021174;28;58733;-64
2023/04/24 01:54:11;;;;;;;0.52;0.10;;;;;;;;;;5024520;28;58561;-63
2023/04/24 01:56:39;;;;;;;0.20;0.20;;;;;;;;;;5022912;28;58673;-65
2023/04/24 01:59:04;;;;;;;0.00;0.00;;;;;;;;;;5021561;28;58775;-65
2023/04/24 02:01:33;;;;;;;0.17;0.17;;;;;;;;;;5023798;28;59342;-64
2023/04/24 02:03:59;;;;;;;0.10;0.10;;;;;;;;;;5025122;28;58312;-64
2023/04/24 02:06:24;;;;;;;0.00;0.00;;;;;;;;;;5023418;28;58450;-65
2023/04/24 02:08:49;;;;;;;0.10;0.10;;;;;;;;;;5023335;28;58400;-65
2023/04/24 02:11:14;;;;;;;0.00;0.00;;;;;;;;;;5023926;28;58488;-63
2023/04/24 02:13:40;;;;;;;0.10;0.10;;;;;;;;;;5022174;28;58919;-65
2023/04/24 02:16:05;;;;;;;0.10;0.10;;;;;;;;;;5025212;28;58691;-64
2023/04/24 02:18:30;;;;;;;0.32;0.20;;;;;;;;;;5022055;28;59687;-65
2023/04/24 02:20:55;;;;;;;0.10;0.10;;;;;;;;;;5024988;28;59261;-64
2023/04/24 02:23:20;;;;;;;0.10;0.10;;;;;;;;;;5026762;28;58550;-64
2023/04/24 02:25:45;;;;;;;0.00;0.00;;;;;;;;;;5026729;28;58581;-65
2023/04/24 02:28:10;;;;;;;0.00;0.00;;;;;;;;;;5025153;28;58591;-64
2023/04/24 02:30:36;;;;;;;0.10;0.10;;;;;;;;;;5027959;28;58289;-64
2023/04/24 02:33:01;;;;;;;0.13;0.13;;;;;;;;;;5028169;28;58736;-65
2023/04/24 02:35:26;;;;;;;0.17;0.10;;;;;;;;;;5027619;28;58386;-63
2023/04/24 02:37:51;;;;;;;0.10;0.10;;;;;;;;;;5026783;28;58995;-65
2023/04/24 02:40:16;;;;;;;0.38;0.10;;;;;;;;;;5025792;28;58436;-65
2023/04/24 02:42:41;;;;;;;0.03;0.03;;;;;;;;;;5025116;28;58650;-63
2023/04/24 02:45:07;;;;;;;0.10;0.10;;;;;;;;;;5026345;28;58703;-64
2023/04/24 02:47:32;;;;;;;0.00;0.00;;;;;;;;;;5028136;28;58647;-64
2023/04/24 02:49:57;;;;;;;0.10;0.10;;;;;;;;;;5026907;28;58004;-63
2023/04/24 02:52:22;;;;;;;0.20;0.20;;;;;;;;;;5041868;28;59641;-65
2023/04/24 02:54:48;;;;;;;0.10;0.10;;;;;;;;;;5025301;27;58728;-65
2023/04/24 02:57:13;;;;;;;0.10;0.10;;;;;;;;;;5026226;28;58510;-64
2023/04/24 02:59:38;;;;;;;0.10;0.10;;;;;;;;;;5028177;28;58418;-64
2023/04/24 03:02:03;;;;;;;0.17;0.17;;;;;;;;;;5026905;28;58686;-64
2023/04/24 03:04:28;;;;;;;0.10;0.10;;;;;;;;;;5025540;28;58530;-65
2023/04/24 03:06:54;;;;;;;0.10;0.10;;;;;;;;;;5027745;28;58372;-64
2023/04/24 03:09:20;;;;;;;0.20;0.20;;;;;;;;;;5025279;28;58690;-64
2023/04/24 03:11:45;;;;;;;0.13;0.13;;;;;;;;;;5023428;28;57984;-64
2023/04/24 03:14:10;;;;;;;0.10;0.10;;;;;;;;;;5024965;28;58815;-64
2023/04/24 03:16:35;;;;;;;0.20;0.20;;;;;;;;;;5026342;28;58872;-64
2023/04/24 03:19:00;;;;;;;0.10;0.10;;;;;;;;;;5027203;28;58482;-65
2023/04/24 03:21:26;;;;;;;0.20;0.20;;;;;;;;;;5025534;28;58846;-64
2023/04/24 03:23:51;;;;;;;0.10;0.10;;;;;;;;;;5025959;28;58837;-64
2023/04/24 03:26:16;;;;;;;0.17;0.17;;;;;;;;;;5027380;28;58764;-64
2023/04/24 03:28:42;;;;;;;0.43;0.30;;;;;;;;;;5024758;28;57998;-65
2023/04/24 03:31:07;;;;;;;0.17;0.17;;;;;;;;;;5023410;28;58507;-64
2023/04/24 03:33:32;;;;;;;0.20;0.20;;;;;;;;;;5026293;28;58698;-64
2023/04/24 03:35:57;;;;;;;0.20;0.20;;;;;;;;;;5025079;28;59370;-64
2023/04/24 03:38:22;;;;;;;0.20;0.20;;;;;;;;;;5026677;28;58456;-65
2023/04/24 03:40:47;;;;;;;0.10;0.10;;;;;;;;;;5027625;28;58685;-67
2023/04/24 03:43:12;;;;;;;0.10;0.10;;;;;;;;;;5022594;28;58889;-66
2023/04/24 03:45:38;;;;;;;0.10;0.10;;;;;;;;;;5024484;28;58810;-66
2023/04/24 03:48:03;;;;;;;0.10;0.10;;;;;;;;;;5024573;28;59791;-66
2023/04/24 03:50:29;;;;;;;0.20;0.20;;;;;;;;;;5024092;28;58567;-65
2023/04/24 03:52:54;;;;;;;0.20;0.20;;;;;;;;;;5024459;28;58437;-66
2023/04/24 03:55:19;;;;;;;0.10;0.10;;;;;;;;;;5026056;28;58375;-66
2023/04/24 03:57:44;;;;;;;0.13;0.13;;;;;;;;;;5026988;28;59298;-65
2023/04/24 04:00:10;;;;;;;0.53;0.30;;;;;;;;;;5027178;28;58448;-66
2023/04/24 04:02:35;;;;;;;0.20;0.20;;;;;;;;;;5025200;28;58371;-66
2023/04/24 04:05:00;;;;;;;0.17;0.10;;;;;;;;;;5023859;28;58678;-66
2023/04/24 04:07:25;;;;;;;0.05;0.05;;;;;;;;;;5025379;28;59047;-64
2023/04/24 04:09:50;;;;;;;0.20;0.20;;;;;;;;;;5023017;28;58786;-64
2023/04/24 04:12:16;;;;;;;0.20;0.20;;;;;;;;;;5025255;28;58632;-66
2023/04/24 04:14:41;;;;;;;0.10;0.10;;;;;;;;;;5026795;28;58273;-66
2023/04/24 04:17:06;;;;;;;0.30;0.30;;;;;;;;;;5023206;28;58438;-66
2023/04/24 04:19:31;;;;;;;0.30;0.30;;;;;;;;;;5024881;28;58820;-66
2023/04/24 04:21:56;;;;;;;0.28;0.28;;;;;;;;;;5022010;28;58455;-65
2023/04/24 04:24:22;;;;;;;0.20;0.20;;;;;;;;;;5020269;28;58722;-66
2023/04/24 04:26:47;;;;;;;0.20;0.20;;;;;;;;;;5027112;28;58945;-66
2023/04/24 04:29:13;;;;;;;0.13;0.13;;;;;;;;;;5025049;28;58811;-66
2023/04/24 04:31:38;;;;;;;0.10;0.10;;;;;;;;;;5025689;28;58289;-66
2023/04/24 04:34:03;;;;;;;0.10;0.10;;;;;;;;;;5024618;28;58959;-66
2023/04/24 04:36:29;;;;;;;0.10;0.10;;;;;;;;;;5022670;28;58866;-66
2023/04/24 04:38:54;;;;;;;0.13;0.13;;;;;;;;;;5026012;28;58736;-66
2023/04/24 04:41:20;;;;;;;0.13;0.13;;;;;;;;;;5027128;28;59267;-65
2023/04/24 04:43:46;;;;;;;0.10;0.10;;;;;;;;;;5021292;28;58694;-66
2023/04/24 04:46:11;;;;;;;0.10;0.10;;;;;;;;;;5026528;28;58558;-66
2023/04/24 04:48:37;;;;;;;0.05;0.05;;;;;;;;;;5023793;28;58623;-66
2023/04/24 04:51:02;;;;;;;1.30;0.20;;;;;;;;;;5022147;28;63236;-67
2023/04/24 04:53:27;;;;;;;0.20;0.20;;;;;;;;;;5025090;28;58562;-67
2023/04/24 04:55:52;;;;;;;0.23;0.23;;;;;;;;;;5024823;28;58337;-67
2023/04/24 04:58:17;;;;;;;0.10;0.10;;;;;;;;;;5024183;28;58657;-67
2023/04/24 05:00:42;;;;;;;0.20;0.20;;;;;;;;;;5024880;28;58447;-66
2023/04/24 05:03:08;;;;;;;1.70;0.27;;;;;;;;;;5023590;28;58730;-67
2023/04/24 05:05:33;;;;;;;0.52;0.20;;;;;;;;;;5019889;28;58765;-67
2023/04/24 05:07:58;;;;;;;0.33;0.33;;;;;;;;;;5023591;28;58462;-67
2023/04/24 05:10:23;;;;;;;0.30;0.30;;;;;;;;;;5025984;28;58830;-67
2023/04/24 05:12:49;;;;;;;2.00;0.47;;;;;;;;;;5026473;28;58413;-67
2023/04/24 05:15:14;;;;;;;3.00;0.60;;;;;;;;;;5024544;28;58833;-66
2023/04/24 05:17:40;;;;;;;2.20;0.50;;;;;;;;;;5027186;28;58241;-68
2023/04/24 05:20:05;;;;;;;1.35;0.75;;;;;;;;;;5026764;28;58383;-69
2023/04/24 05:22:31;;;;;;;0.63;0.63;;;;;;;;;;5026621;28;58822;-69
2023/04/24 05:24:56;;;;;;;2.60;0.70;;;;;;;;;;5027169;28;58955;-71
2023/04/24 05:27:21;;;;;;;0.52;0.28;;;;;;;;;;5025819;28;58634;-65
2023/04/24 05:29:46;;;;;;;2.13;0.60;;;;;;;;;;5026921;28;58544;-64
2023/04/24 05:32:11;;;;;;;0.70;0.40;;;;;;;;;;5027530;28;57976;-73
2023/04/24 05:34:37;;;;;;;4.10;0.95;;;;;;;;;;5023694;28;58468;-63
2023/04/24 05:37:02;;;;;;;0.50;0.50;;;;;;;;;;5025817;28;58459;-66
2023/04/24 05:39:28;;;;;;;3.40;0.50;;;;;;;;;;5025463;28;58825;-64
2023/04/24 05:41:53;;;;;;;0.77;0.47;;;;;;;;;;5024842;28;58620;-66
2023/04/24 05:44:18;;;;;;;1.33;0.50;;;;;;;;;;5027644;28;58427;-64
2023/04/24 05:46:43;;;;;;;2.17;0.60;;;;;;;;;;5025833;28;60146;-62
2023/04/24 05:49:08;;;;;;;4.20;0.88;;;;;;;;;;5026313;28;58905;-63
2023/04/24 05:51:33;;;;;;;2.10;0.40;;;;;;;;;;5023979;28;58645;-64
2023/04/24 05:53:59;;;;;;;2.30;0.87;;;;;;;;;;5024987;28;58349;-63
2023/04/24 05:56:24;;;;;;;1.00;0.40;;;;;;;;;;5025936;28;58327;-62
2023/04/24 05:58:49;;;;;;;2.67;0.50;;;;;;;;;;5025967;28;58651;-62
2023/04/24 06:01:14;;;;;;;2.10;0.50;;;;;;;;;;5028270;28;58683;-63
2023/04/24 06:03:43;;;;;;;1.88;0.50;;;;;;;;;;5029276;28;58288;-63
2023/04/24 06:06:08;;;;;;;3.25;0.90;;;;;;;;;;5028921;28;58657;-64
2023/04/24 06:08:34;;;;;;;0.60;0.40;;;;;;;;;;5028636;28;59555;-63
2023/04/24 06:10:59;;;;;;;2.40;0.50;;;;;;;;;;5028109;28;58695;-65
2023/04/24 06:13:24;;;;;;;1.50;0.63;;;;;;;;;;5025357;28;58758;-64
2023/04/24 06:15:49;;;;;;;2.20;0.80;;;;;;;;;;5027703;28;58792;-65
2023/04/24 06:18:15;;;;;;;2.67;0.60;;;;;;;;;;5029059;28;59078;-64
2023/04/24 06:20:40;;;;;;;0.63;0.50;;;;;;;;;;5021503;28;58377;-62
2023/04/24 06:23:05;;;;;;;2.00;0.60;;;;;;;;;;5028476;28;58728;-63
2023/04/24 06:25:30;;;;;;;0.93;0.60;;;;;;;;;;5026794;28;58854;-64
2023/04/24 06:27:56;;;;;;;0.60;0.60;;;;;;;;;;5027831;28;58779;-64
2023/04/24 06:30:21;;;;;;;1.27;1.15;;;;;;;;;;5019173;28;58941;-64
2023/04/24 06:32:46;;;;;;;4.70;0.60;;;;;;;;;;5027538;28;58292;-64
2023/04/24 06:35:12;;;;;;;1.30;0.98;;;;;;;;;;5027175;28;58465;-63
2023/04/24 06:37:38;;;;;;;1.02;0.93;;;;;;;;;;5027822;28;58406;-64
2023/04/24 06:40:03;;;;;;;1.08;0.88;;;;;;;;;;5023453;28;58897;-64
2023/04/24 06:42:29;;;;;;;1.23;0.55;;;;;;;;;;5025272;28;58808;-63
2023/04/24 06:44:54;;;;;;;1.13;1.02;;;;;;;;;;5027881;28;59041;-62
2023/04/24 06:47:19;;;;;;;3.10;1.37;;;;;;;;;;5027139;28;58660;-64
2023/04/24 06:49:44;;;;;;;0.67;0.60;;;;;;;;;;5028422;28;58998;-64
2023/04/24 06:52:10;;;;;;;3.13;0.60;;;;;;;;;;5044087;28;58813;-62
2023/04/24 06:54:35;;;;;;;4.57;0.73;;;;;;;;;;5020357;28;58338;-63
2023/04/24 06:57:00;;;;;;;1.90;0.60;;;;;;;;;;5007469;28;58857;-63
2023/04/24 06:59:26;;;;;;;2.15;0.65;;;;;;;;;;5003737;28;58365;-61
2023/04/24 07:01:51;;;;;;;0.43;0.30;;;;;;;;;;5002330;28;58804;-63
2023/04/24 07:04:16;;;;;;;1.40;0.50;;;;;;;;;;5020904;28;58490;-62
2023/04/24 07:06:41;;;;;;;2.78;1.42;;;;;;;;;;5028150;28;59160;-65
2023/04/24 07:09:08;;;;;;;0.60;0.50;;;;;;;;;;5026488;28;58841;-62
2023/04/24 07:11:36;;;;;;;0.52;0.50;;;;;;;;;;5024679;28;58912;-62
2023/04/24 07:14:01;;;;;;;0.70;0.40;;;;;;;;;;5028176;28;58732;-65
2023/04/24 07:16:26;;;;;;;1.13;1.03;;;;;;;;;;5029327;28;58794;-64
2023/04/24 07:18:52;;;;;;;0.40;0.40;;;;;;;;;;5027042;28;59404;-63
2023/04/24 07:21:17;;;;;;;0.30;0.30;;;;;;;;;;5028460;28;58304;-64
2023/04/24 07:23:42;;;;;;;1.45;0.75;;;;;;;;;;5023764;28;58807;-63
2023/04/24 07:26:07;;;;;;;1.00;0.60;;;;;;;;;;5028508;28;58388;-64
2023/04/24 07:28:32;;;;;;;0.70;0.70;;;;;;;;;;5027909;28;58676;-64
2023/04/24 07:30:58;;;;;;;0.57;0.57;;;;;;;;;;5028199;28;58796;-64
2023/04/24 07:33:23;;;;;;;0.70;0.70;;;;;;;;;;5023972;28;58680;-63
2023/04/24 07:35:48;;;;;;;0.60;0.60;;;;;;;;;;5029160;28;58364;-63
2023/04/24 07:38:14;;;;;;;0.50;0.50;;;;;;;;;;5028696;28;58707;-62
2023/04/24 07:40:39;;;;;;;0.77;0.50;;;;;;;;;;5028518;28;58607;-62
2023/04/24 07:43:04;;;;;;;1.43;0.60;;;;;;;;;;5021388;28;58396;-63
2023/04/24 07:45:31;;;;;;;0.50;0.50;;;;;;;;;;5027782;28;58344;-62
2023/04/24 07:47:56;;;;;;;0.50;0.50;;;;;;;;;;5024537;28;58277;-62
2023/04/24 07:50:21;;;;;;;0.30;0.30;;;;;;;;;;5028546;28;58442;-62
2023/04/24 07:52:47;;;;;;;0.43;0.40;;;;;;;;;;5022945;28;59287;-63
2023/04/24 07:55:12;;;;;;;0.68;0.43;;;;;;;;;;5025236;28;58796;-62
2023/04/24 07:57:37;;;;;;;1.08;0.75;;;;;;;;;;5027788;28;58731;-62
2023/04/24 08:00:03;;;;;;;1.27;0.50;;;;;;;;;;5028235;28;58630;-65
2023/04/24 08:02:29;;;;;;;1.45;0.50;;;;;;;;;;5026768;28;58726;-62
2023/04/24 08:04:54;;;;;;;0.98;0.88;;;;;;;;;;5023505;28;58752;-61
2023/04/24 08:07:19;;;;;;;0.50;0.40;;;;;;;;;;5027942;28;58364;-64
2023/04/24 08:09:44;;;;;;;0.32;0.32;;;;;;;;;;5027712;28;58404;-62
2023/04/24 08:12:09;;;;;;;1.23;0.68;;;;;;;;;;5024128;28;58529;-63
2023/04/24 08:14:35;;;;;;;0.52;0.52;;;;;;;;;;5023727;28;58769;-62
2023/04/24 08:17:01;;;;;;;0.30;0.30;;;;;;;;;;5027321;28;59001;-62
2023/04/24 08:19:26;;;;;;;0.73;0.55;;;;;;;;;;5027732;28;58370;-62
2023/04/24 08:21:51;;;;;;;0.55;0.40;;;;;;;;;;5027822;28;59592;-62
2023/04/24 08:24:16;;;;;;;0.55;0.40;;;;;;;;;;5026210;28;58770;-62
2023/04/24 08:26:41;;;;;;;0.40;0.40;;;;;;;;;;5025599;28;58503;-62
2023/04/24 08:29:06;;;;;;;0.57;0.57;;;;;;;;;;5026842;28;58804;-62
2023/04/24 08:31:32;;;;;;;0.43;0.40;;;;;;;;;;5026719;28;58464;-63
2023/04/24 08:33:57;;;;;;;0.65;0.57;;;;;;;;;;5026504;28;58964;-62
2023/04/24 08:36:22;;;;;;;0.30;0.30;;;;;;;;;;5022944;28;58411;-63
2023/04/24 08:38:47;;;;;;;0.53;0.53;;;;;;;;;;5026229;28;58690;-62
2023/04/24 08:41:14;;;;;;;0.47;0.47;;;;;;;;;;5028178;28;58965;-62
2023/04/24 08:43:39;;;;;;;0.47;0.30;;;;;;;;;;5026549;28;58511;-63
2023/04/24 08:46:05;;;;;;;0.45;0.45;;;;;;;;;;5024498;28;58379;-62
2023/04/24 08:48:31;;;;;;;0.40;0.40;;;;;;;;;;5026444;28;59196;-64
2023/04/24 08:50:56;;;;;;;0.40;0.40;;;;;;;;;;5024451;28;58826;-61
2023/04/24 08:53:22;;;;;;;0.43;0.43;;;;;;;;;;5027216;28;59198;-64
2023/04/24 08:55:48;;;;;;;0.63;0.63;;;;;;;;;;5022786;28;58745;-61
2023/04/24 08:58:14;;;;;;;0.60;0.55;;;;;;;;;;5026038;28;58924;-63
2023/04/24 09:00:39;;;;;;;1.17;0.40;;;;;;;;;;5027066;28;58719;-64
2023/04/24 09:03:05;;;;;;;0.57;0.30;;;;;;;;;;5025380;28;59227;-64
2023/04/24 09:05:30;;;;;;;0.63;0.57;;;;;;;;;;5026443;28;58703;-61
2023/04/24 09:07:56;;;;;;;0.37;0.33;;;;;;;;;;5024300;28;58403;-62
2023/04/24 09:10:22;;;;;;;0.50;0.50;;;;;;;;;;5025679;28;58201;-62
2023/04/24 09:12:49;;;;;;;0.40;0.35;;;;;;;;;;5025286;28;58393;-62
2023/04/24 09:15:15;;;;;;;0.30;0.30;;;;;;;;;;5025814;28;57897;-62
2023/04/24 09:17:40;;;;;;;0.20;0.20;;;;;;;;;;5019492;28;58573;-62
2023/04/24 09:20:05;;;;;;;0.47;0.37;;;;;;;;;;5025658;28;58400;-62
2023/04/24 09:22:31;;;;;;;0.22;0.22;;;;;;;;;;5026575;28;58907;-62
2023/04/24 09:25:03;;;;;;;0.95;0.40;;;;;;;;;;5026998;28;58613;-65
2023/04/24 09:27:28;;;;;;;0.38;0.38;;;;;;;;;;5020074;28;58404;-63
2023/04/24 09:29:57;;;;;;;0.30;0.30;;;;;;;;;;5024047;28;59303;-63
2023/04/24 09:32:24;;;;;;;0.30;0.30;;;;;;;;;;5026520;28;58519;-64
2023/04/24 09:34:51;;;;;;;0.30;0.30;;;;;;;;;;5026800;28;58662;-64
2023/04/24 09:37:29;;;;;;;0.32;0.32;;;;;;;;;;5020700;28;58931;-63
2023/04/24 09:40:13;;;;;;;0.20;0.20;;;;;;;;;;5025990;28;59203;-63
2023/04/24 09:42:39;;;;;;;0.30;0.30;;;;;;;;;;5026075;28;58960;-64
2023/04/24 09:45:08;;;;;;;0.25;0.25;;;;;;;;;;5025637;28;58700;-64
2023/04/24 09:47:37;;;;;;;0.40;0.30;;;;;;;;;;5019298;28;58920;-63
2023/04/24 09:50:11;;;;;;;0.30;0.30;;;;;;;;;;5025087;28;58431;-64
2023/04/24 09:52:39;;;;;;;0.25;0.25;;;;;;;;;;5026299;28;59913;-64
2023/04/24 09:55:10;;;;;;;0.30;0.30;;;;;;;;;;5026481;28;58296;-64
2023/04/24 09:57:36;;;;;;;0.25;0.25;;;;;;;;;;5025756;28;58774;-63
2023/04/24 10:00:01;;;;;;;0.20;0.20;;;;;;;;;;5023357;28;58778;-64
2023/04/24 10:02:26;;;;;;;0.30;0.30;;;;;;;;;;5027266;28;58992;-64
2023/04/24 10:04:56;;;;;;;0.30;0.30;;;;;;;;;;5024083;28;58464;-64
2023/04/24 10:07:21;;;;;;;0.40;0.40;;;;;;;;;;5006277;28;58863;-63
2023/04/24 10:09:46;;;;;;;0.30;0.30;;;;;;;;;;5006385;28;58378;-64
2023/04/24 10:12:12;;;;;;;0.67;0.60;;;;;;;;;;5023296;28;58551;-63
2023/04/24 10:14:37;;;;;;;0.65;0.65;;;;;;;;;;5026539;28;58686;-64
2023/04/24 10:17:03;;;;;;;0.20;0.20;;;;;;;;;;5026108;28;59215;-62
2023/04/24 10:19:29;;;;;;;0.63;0.50;;;;;;;;;;5016705;28;58900;-63
2023/04/24 10:21:55;;;;;;;1.48;0.25;;;;;;;;;;5025707;28;58814;-64
2023/04/24 10:24:21;;;;;;;0.30;0.30;;;;;;;;;;5024615;28;58759;-64
2023/04/24 10:26:48;;;;;;;0.40;0.40;;;;;;;;;;5026149;28;58780;-64
2023/04/24 10:29:15;;;;;;;0.60;0.40;;;;;;;;;;5023698;28;58694;-63
2023/04/24 10:31:40;;;;;;;0.40;0.40;;;;;;;;;;5024045;28;58813;-64
2023/04/24 10:34:06;;;;;;;0.30;0.30;;;;;;;;;;5025474;28;59030;-63
2023/04/24 10:36:32;;;;;;;0.30;0.30;;;;;;;;;;5024797;28;59538;-63
2023/04/24 10:38:58;;;;;;;0.35;0.35;;;;;;;;;;5023520;28;58436;-63
2023/04/24 10:41:25;;;;;;;0.15;0.15;;;;;;;;;;5022527;28;59113;-63
2023/04/24 10:44:06;;;;;;;0.30;0.30;;;;;;;;;;5022517;28;58670;-62
2023/04/24 10:46:31;;;;;;;0.43;0.20;;;;;;;;;;5028147;28;58884;-64
2023/04/24 10:48:58;;;;;;;0.73;0.50;;;;;;;;;;5030008;28;58652;-64
2023/04/24 10:51:23;;;;;;;0.30;0.20;;;;;;;;;;5024634;28;58615;-64
2023/04/24 10:53:52;;;;;;;0.30;0.30;;;;;;;;;;5028938;28;58359;-64
2023/04/24 10:56:17;;;;;;;;;;;;;;;;;;5029599;28;58640;-64
2023/04/24 10:58:46;;;;;;;0.52;0.30;;;;;;;;;;5028250;28;58245;-64
2023/04/24 11:01:30;;;;;;;0.20;0.20;;;;;;;;;;5023954;28;57919;-63
2023/04/24 11:03:59;;;;;;;0.30;0.20;;;;;;;;;;5027649;28;58819;-64
2023/04/24 11:06:29;;;;;;;0.60;0.30;;;;;;;;;;5029184;28;58269;-64
2023/04/24 11:09:01;;;;;;;0.40;0.40;;;;;;;;;;5028831;28;58503;-63
2023/04/24 11:11:28;;;;;;;0.20;0.20;;;;;;;;;;5019277;28;58344;-63
2023/04/24 11:13:53;;;;;;;0.30;0.30;;;;;;;;;;5029337;28;58394;-64
2023/04/24 11:16:22;;;;;;;0.20;0.20;;;;;;;;;;5027902;28;58276;-64
2023/04/24 11:18:52;;;;;;;0.10;0.10;;;;;;;;;;5029349;28;58551;-64
2023/04/24 11:21:18;;;;;;;0.45;0.17;;;;;;;;;;5025734;28;58366;-64
2023/04/24 11:23:44;;;;;;;0.10;0.10;;;;;;;;;;5025257;28;58706;-64
2023/04/24 11:26:10;;;;;;;0.20;0.20;;;;;;;;;;5030026;28;58280;-63
2023/04/24 11:28:35;;;;;;;0.40;0.30;;;;;;;;;;5027353;28;58196;-62
2023/04/24 11:31:20;;;;;;;0.10;0.10;;;;;;;;;;5026145;27;59537;-64
2023/04/24 11:33:46;;;;;;;0.20;0.20;;;;;;;;;;5024286;28;58519;-63
2023/04/24 11:36:11;;;;;;;0.10;0.10;;;;;;;;;;5027451;28;58802;-63
2023/04/24 11:38:36;;;;;;;0.10;0.10;;;;;;;;;;5027381;28;58776;-64
2023/04/24 11:41:03;;;;;;;0.30;0.30;;;;;;;;;;5027790;28;58911;-64
2023/04/24 11:43:30;;;;;;;0.25;0.25;;;;;;;;;;5022591;28;58702;-64
2023/04/24 11:45:59;;;;;;;0.20;0.20;;;;;;;;;;5027602;27;58403;-63
2023/04/24 11:48:24;;;;;;;0.40;0.40;;;;;;;;;;5029271;28;58476;-64
2023/04/24 11:50:49;;;;;;;0.10;0.10;;;;;;;;;;5025260;28;58363;-63
2023/04/24 11:53:14;;;;;;;0.57;0.20;;;;;;;;;;5023746;28;58655;-64
2023/04/24 11:55:40;;;;;;;0.40;0.40;;;;;;;;;;5027315;28;58987;-63
2023/04/24 11:58:05;;;;;;;0.10;0.10;;;;;;;;;;5026528;28;58462;-63
2023/04/24 12:00:31;;;;;;;0.15;0.10;;;;;;;;;;5028949;28;58411;-64
2023/04/24 12:03:09;;;;;;;0.10;0.10;;;;;;;;;;5027338;28;58659;-63
2023/04/24 12:05:35;;;;;;;0.17;0.17;;;;;;;;;;5025576;28;58785;-63
2023/04/24 12:08:00;;;;;;;0.30;0.20;;;;;;;;;;5028171;28;58723;-64
2023/04/24 12:10:26;;;;;;;0.10;0.10;;;;;;;;;;5027202;28;58653;-63
2023/04/24 12:12:52;;;;;;;0.15;0.15;;;;;;;;;;5026270;28;58896;-65
2023/04/24 12:15:18;;;;;;;0.70;0.40;;;;;;;;;;5023184;28;58562;-63
2023/04/24 12:17:44;;;;;;;0.20;0.20;;;;;;;;;;5027891;28;58920;-61
2023/04/24 12:20:09;;;;;;;0.30;0.30;;;;;;;;;;5028236;28;58764;-62
2023/04/24 12:22:49;;;;;;;0.80;0.50;;;;;;;;;;5027132;28;58635;-62
2023/04/24 12:25:19;;;;;;;0.30;0.30;;;;;;;;;;5023617;28;58928;-62
2023/04/24 12:27:44;;;;;;;0.30;0.30;;;;;;;;;;5027412;28;58629;-65
2023/04/24 12:30:11;;;;;;;0.43;0.43;;;;;;;;;;5027487;28;58512;-64
2023/04/24 12:32:40;;;;;;;0.50;0.30;;;;;;;;;;5027077;28;58332;-64
2023/04/24 12:35:06;;;;;;;0.30;0.30;;;;;;;;;;5022876;28;58461;-63
2023/04/24 12:37:32;;;;;;;0.30;0.30;;;;;;;;;;5026726;28;58559;-63
2023/04/24 12:40:01;;;;;;;0.32;0.30;;;;;;;;;;5027606;28;58391;-63
2023/04/24 12:42:28;;;;;;;0.20;0.20;;;;;;;;;;5026986;28;59645;-64
2023/04/24 12:44:56;;;;;;;0.30;0.30;;;;;;;;;;5024846;28;58604;-63
2023/04/24 12:47:21;;;;;;;;;;;;;;;;;;5027456;28;58174;-64
2023/04/24 12:49:46;;;;;;;0.50;0.38;;;;;;;;;;5027170;28;58805;-63
2023/04/24 12:52:11;;;;;;;0.30;0.30;;;;;;;;;;5027085;27;58053;-64
2023/04/24 12:54:36;;;;;;;0.20;0.20;;;;;;;;;;5025359;28;58900;-64
2023/04/24 12:57:01;;;;;;;0.50;0.50;;;;;;;;;;5020751;28;58738;-64
2023/04/24 12:59:27;;;;;;;0.30;0.30;;;;;;;;;;5028193;28;58481;-62
2023/04/24 13:01:52;;;;;;;0.20;0.20;;;;;;;;;;5027514;28;58787;-64
2023/04/24 13:04:17;;;;;;;1.58;0.45;;;;;;;;;;5027038;28;58529;-64
2023/04/24 13:06:42;;;;;;;2.20;0.30;;;;;;;;;;5023509;28;59027;-63
2023/04/24 13:09:07;;;;;;;1.60;0.28;;;;;;;;;;5025385;28;58829;-64
2023/04/24 13:11:32;;;;;;;0.47;0.40;;;;;;;;;;5026706;28;58644;-64
2023/04/24 13:13:58;;;;;;;0.53;0.43;;;;;;;;;;5027802;28;58414;-64
2023/04/24 13:16:23;;;;;;;0.30;0.30;;;;;;;;;;5020980;28;58539;-62
2023/04/24 13:18:48;;;;;;;0.57;0.40;;;;;;;;;;5026962;28;58280;-62
2023/04/24 13:21:13;;;;;;;0.47;0.45;;;;;;;;;;5026090;28;59032;-63
2023/04/24 13:23:38;;;;;;;0.63;0.30;;;;;;;;;;5027147;28;58475;-64
2023/04/24 13:26:03;;;;;;;0.50;0.50;;;;;;;;;;5023307;28;58807;-63
2023/04/24 13:28:30;;;;;;;0.63;0.43;;;;;;;;;;5025799;28;58371;-64
2023/04/24 13:30:55;;;;;;;0.32;0.32;;;;;;;;;;5026361;28;58380;-63
2023/04/24 13:33:20;;;;;;;0.53;0.53;;;;;;;;;;5025198;28;59059;-64
2023/04/24 13:35:45;;;;;;;0.40;0.30;;;;;;;;;;5024864;28;58379;-63
2023/04/24 13:38:10;;;;;;;3.10;0.43;;;;;;;;;;5024191;28;58191;-64
2023/04/24 13:40:35;;;;;;;0.40;0.40;;;;;;;;;;5026961;28;58340;-64
2023/04/24 13:43:01;;;;;;;0.50;0.38;;;;;;;;;;5027132;28;58483;-64
2023/04/24 13:45:26;;;;;;;2.00;0.40;;;;;;;;;;5026901;28;58336;-64
2023/04/24 13:47:52;;;;;;;0.37;0.37;;;;;;;;;;5022786;28;58515;-63
2023/04/24 13:50:17;;;;;;;0.30;0.30;;;;;;;;;;5026938;28;58379;-63
2023/04/24 13:52:42;;;;;;;0.50;0.40;;;;;;;;;;5023040;28;58884;-64
2023/04/24 13:55:07;;;;;;;0.93;0.50;;;;;;;;;;5025064;28;58685;-64
2023/04/24 13:57:33;;;;;;;0.50;0.37;;;;;;;;;;5020838;28;58899;-64
2023/04/24 14:00:01;;;;;;;3.40;0.93;;;;;;;;;;5024544;28;58616;-65
2023/04/24 14:02:27;;;;;;;0.30;0.30;;;;;;;;;;5026575;28;58962;-64
2023/04/24 14:04:52;;;;;;;0.68;0.50;;;;;;;;;;5026317;28;58691;-61
2023/04/24 14:07:17;;;;;;;0.30;0.30;;;;;;;;;;5022864;28;58844;-64
2023/04/24 14:09:43;;;;;;;0.35;0.35;;;;;;;;;;5026772;28;58519;-64
2023/04/24 14:12:08;;;;;;;0.80;0.30;;;;;;;;;;5024975;28;58078;-64
2023/04/24 14:14:33;;;;;;;0.43;0.43;;;;;;;;;;5024810;28;59401;-64
2023/04/24 14:16:58;;;;;;;1.27;0.20;;;;;;;;;;5025989;28;58336;-62
2023/04/24 14:19:23;;;;;;;1.50;0.97;;;;;;;;;;5023929;28;59589;-64
2023/04/24 14:21:49;;;;;;;1.60;0.80;;;;;;;;;;5028932;28;58721;-64
2023/04/24 14:24:14;;;;;;;0.68;0.30;;;;;;;;;;5029643;28;58217;-64
2023/04/24 14:26:39;;;;;;;0.77;0.40;;;;;;;;;;5030373;28;58422;-64
2023/04/24 14:29:05;;;;;;;1.10;0.87;;;;;;;;;;5027525;28;58347;-64
2023/04/24 14:31:30;;;;;;;1.27;0.60;;;;;;;;;;5028586;28;58837;-64
2023/04/24 14:33:55;;;;;;;1.57;0.30;;;;;;;;;;5028808;28;58653;-63